sensor_id;sensor_type;location;lat;lon;timestamp;pressure;altitude;pressure_sealevel;temperature;humidity
46408;BME280;32110;45.724;21.276;2024-01-25T00:01:41;101025.25;;;2.97;nan
46408;BME280;32110;45.724;21.276;2024-01-25T00:04:06;101031.09;;;2.99;nan
46408;BME280;32110;45.724;21.276;2024-01-25T00:06:31;101022.00;;;2.95;nan
46408;BME280;32110;45.724;21.276;2024-01-25T00:08:57;101033.53;;;3.01;nan
46408;BME280;32110;45.724;21.276;2024-01-25T00:11:22;101034.06;;;3.04;nan
46408;BME280;32110;45.724;21.276;2024-01-25T00:13:48;101018.91;;;3.00;nan
46408;BME280;32110;45.724;21.276;2024-01-25T00:16:13;101018.25;;;2.97;nan
46408;BME280;32110;45.724;21.276;2024-01-25T00:18:39;101013.19;;;2.96;nan
46408;BME280;32110;45.724;21.276;2024-01-25T00:21:04;101038.75;;;3.09;nan
46408;BME280;32110;45.724;21.276;2024-01-25T00:23:30;101034.38;;;3.09;nan
46408;BME280;32110;45.724;21.276;2024-01-25T00:25:55;101031.59;;;3.03;nan
46408;BME280;32110;45.724;21.276;2024-01-25T00:28:24;101029.47;;;3.06;nan
46408;BME280;32110;45.724;21.276;2024-01-25T00:30:50;101028.84;;;3.04;nan
46408;BME280;32110;45.724;21.276;2024-01-25T00:33:15;101021.03;;;3.04;nan
46408;BME280;32110;45.724;21.276;2024-01-25T00:35:41;101022.97;;;3.02;nan
46408;BME280;32110;45.724;21.276;2024-01-25T00:38:07;101017.94;;;2.92;nan
46408;BME280;32110;45.724;21.276;2024-01-25T00:40:33;101031.75;;;3.01;nan
46408;BME280;32110;45.724;21.276;2024-01-25T00:42:58;101038.09;;;2.98;nan
46408;BME280;32110;45.724;21.276;2024-01-25T00:45:24;101030.09;;;2.92;nan
46408;BME280;32110;45.724;21.276;2024-01-25T00:47:50;101037.28;;;2.90;nan
46408;BME280;32110;45.724;21.276;2024-01-25T00:50:17;100994.91;;;2.63;nan
46408;BME280;32110;45.724;21.276;2024-01-25T00:52:43;101029.63;;;2.88;nan
46408;BME280;32110;45.724;21.276;2024-01-25T00:55:10;101032.53;;;2.85;nan
46408;BME280;32110;45.724;21.276;2024-01-25T00:57:36;101017.69;;;2.77;nan
46408;BME280;32110;45.724;21.276;2024-01-25T01:00:02;101013.63;;;2.75;nan
46408;BME280;32110;45.724;21.276;2024-01-25T01:02:29;101000.47;;;2.68;nan
46408;BME280;32110;45.724;21.276;2024-01-25T01:04:59;101016.91;;;2.77;nan
46408;BME280;32110;45.724;21.276;2024-01-25T01:07:25;101014.47;;;2.75;nan
46408;BME280;32110;45.724;21.276;2024-01-25T01:09:51;100975.22;;;2.52;nan
46408;BME280;32110;45.724;21.276;2024-01-25T01:12:16;101002.91;;;2.70;nan
46408;BME280;32110;45.724;21.276;2024-01-25T01:14:42;101019.34;;;2.79;nan
46408;BME280;32110;45.724;21.276;2024-01-25T01:17:08;101017.41;;;2.81;nan
46408;BME280;32110;45.724;21.276;2024-01-25T01:19:33;101012.22;;;2.81;nan
46408;BME280;32110;45.724;21.276;2024-01-25T01:21:59;101004.69;;;2.77;nan
46408;BME280;32110;45.724;21.276;2024-01-25T01:24:24;101008.94;;;2.79;nan
46408;BME280;32110;45.724;21.276;2024-01-25T01:26:50;100998.22;;;2.73;nan
46408;BME280;32110;45.724;21.276;2024-01-25T01:29:16;101007.63;;;2.74;nan
46408;BME280;32110;45.724;21.276;2024-01-25T01:31:42;101005.31;;;2.63;nan
46408;BME280;32110;45.724;21.276;2024-01-25T01:34:08;100995.41;;;2.59;nan
46408;BME280;32110;45.724;21.276;2024-01-25T01:36:33;101011.16;;;2.65;nan
46408;BME280;32110;45.724;21.276;2024-01-25T01:38:58;101002.72;;;2.63;nan
46408;BME280;32110;45.724;21.276;2024-01-25T01:41:25;101006.78;;;2.66;nan
46408;BME280;32110;45.724;21.276;2024-01-25T01:43:54;100984.81;;;2.52;nan
46408;BME280;32110;45.724;21.276;2024-01-25T01:46:35;101006.78;;;2.66;nan
46408;BME280;32110;45.724;21.276;2024-01-25T01:49:03;100979.28;;;2.55;nan
46408;BME280;32110;45.724;21.276;2024-01-25T01:51:30;100998.34;;;2.64;nan
46408;BME280;32110;45.724;21.276;2024-01-25T01:53:57;100984.50;;;2.55;nan
46408;BME280;32110;45.724;21.276;2024-01-25T01:56:27;100982.22;;;2.60;nan
46408;BME280;32110;45.724;21.276;2024-01-25T01:58:56;100981.91;;;2.63;nan
46408;BME280;32110;45.724;21.276;2024-01-25T02:01:24;100964.97;;;2.51;nan
46408;BME280;32110;45.724;21.276;2024-01-25T02:03:49;100965.97;;;2.58;nan
46408;BME280;32110;45.724;21.276;2024-01-25T02:06:15;100963.38;;;2.58;nan
46408;BME280;32110;45.724;21.276;2024-01-25T02:08:40;100958.03;;;2.60;nan
46408;BME280;32110;45.724;21.276;2024-01-25T02:11:06;100963.72;;;2.63;nan
46408;BME280;32110;45.724;21.276;2024-01-25T02:13:33;100956.56;;;2.57;nan
46408;BME280;32110;45.724;21.276;2024-01-25T02:15:58;100946.81;;;2.59;nan
46408;BME280;32110;45.724;21.276;2024-01-25T02:18:24;100946.97;;;2.58;nan
46408;BME280;32110;45.724;21.276;2024-01-25T02:20:49;100954.28;;;2.62;nan
46408;BME280;32110;45.724;21.276;2024-01-25T02:23:15;100930.56;;;2.57;nan
46408;BME280;32110;45.724;21.276;2024-01-25T02:25:40;100946.84;;;2.75;nan
46408;BME280;32110;45.724;21.276;2024-01-25T02:28:06;100933.53;;;2.79;nan
46408;BME280;32110;45.724;21.276;2024-01-25T02:30:31;100929.13;;;2.87;nan
46408;BME280;32110;45.724;21.276;2024-01-25T02:32:57;100940.22;;;2.97;nan
46408;BME280;32110;45.724;21.276;2024-01-25T02:35:22;100936.63;;;2.90;nan
46408;BME280;32110;45.724;21.276;2024-01-25T02:37:47;100942.63;;;2.99;nan
46408;BME280;32110;45.724;21.276;2024-01-25T02:40:13;100951.91;;;3.02;nan
46408;BME280;32110;45.724;21.276;2024-01-25T02:42:38;100945.22;;;2.99;nan
46408;BME280;32110;45.724;21.276;2024-01-25T02:45:04;100937.91;;;2.94;nan
46408;BME280;32110;45.724;21.276;2024-01-25T02:47:30;100950.94;;;3.03;nan
46408;BME280;32110;45.724;21.276;2024-01-25T02:49:55;100962.16;;;3.03;nan
46408;BME280;32110;45.724;21.276;2024-01-25T02:52:21;100951.91;;;3.02;nan
46408;BME280;32110;45.724;21.276;2024-01-25T02:54:46;100957.94;;;3.02;nan
46408;BME280;32110;45.724;21.276;2024-01-25T02:57:11;100945.56;;;2.96;nan
46408;BME280;32110;45.724;21.276;2024-01-25T02:59:37;100946.03;;;2.91;nan
46408;BME280;32110;45.724;21.276;2024-01-25T03:02:02;100961.50;;;3.01;nan
46408;BME280;32110;45.724;21.276;2024-01-25T03:04:28;100971.59;;;3.12;nan
46408;BME280;32110;45.724;21.276;2024-01-25T03:06:53;100973.22;;;3.13;nan
46408;BME280;32110;45.724;21.276;2024-01-25T03:09:19;100972.25;;;3.14;nan
46408;BME280;32110;45.724;21.276;2024-01-25T03:11:46;100980.22;;;3.21;nan
46408;BME280;32110;45.724;21.276;2024-01-25T03:14:12;100976.50;;;3.24;nan
46408;BME280;32110;45.724;21.276;2024-01-25T03:16:37;100955.19;;;3.12;nan
46408;BME280;32110;45.724;21.276;2024-01-25T03:19:03;100965.59;;;3.28;nan
46408;BME280;32110;45.724;21.276;2024-01-25T03:21:28;100967.53;;;3.26;nan
46408;BME280;32110;45.724;21.276;2024-01-25T03:23:54;100954.34;;;3.28;nan
46408;BME280;32110;45.724;21.276;2024-01-25T03:26:19;100956.66;;;3.31;nan
46408;BME280;32110;45.724;21.276;2024-01-25T03:28:45;100963.97;;;3.35;nan
46408;BME280;32110;45.724;21.276;2024-01-25T03:31:10;100941.00;;;3.23;nan
46408;BME280;32110;45.724;21.276;2024-01-25T03:33:36;100961.84;;;3.39;nan
46408;BME280;32110;45.724;21.276;2024-01-25T03:36:02;100948.50;;;3.34;nan
46408;BME280;32110;45.724;21.276;2024-01-25T03:38:28;100951.75;;;3.36;nan
46408;BME280;32110;45.724;21.276;2024-01-25T03:40:53;100954.69;;;3.41;nan
46408;BME280;32110;45.724;21.276;2024-01-25T03:43:20;100945.75;;;3.35;nan
46408;BME280;32110;45.724;21.276;2024-01-25T03:45:47;100961.00;;;3.47;nan
46408;BME280;32110;45.724;21.276;2024-01-25T03:48:12;100955.34;;;3.43;nan
46408;BME280;32110;45.724;21.276;2024-01-25T03:50:37;100954.69;;;3.41;nan
46408;BME280;32110;45.724;21.276;2024-01-25T03:53:03;100959.25;;;3.47;nan
46408;BME280;32110;45.724;21.276;2024-01-25T03:55:28;100962.16;;;3.44;nan
46408;BME280;32110;45.724;21.276;2024-01-25T03:57:54;100960.22;;;3.46;nan
46408;BME280;32110;45.724;21.276;2024-01-25T04:00:19;100962.81;;;3.46;nan
46408;BME280;32110;45.724;21.276;2024-01-25T04:02:45;100963.31;;;3.50;nan
46408;BME280;32110;45.724;21.276;2024-01-25T04:05:10;100943.47;;;3.40;nan
46408;BME280;32110;45.724;21.276;2024-01-25T04:07:36;100958.91;;;3.50;nan
46408;BME280;32110;45.724;21.276;2024-01-25T04:10:01;100904.91;;;3.19;nan
46408;BME280;32110;45.724;21.276;2024-01-25T04:12:27;100954.66;;;3.49;nan
46408;BME280;32110;45.724;21.276;2024-01-25T04:14:52;100981.50;;;3.66;nan
46408;BME280;32110;45.724;21.276;2024-01-25T04:17:18;100973.06;;;3.64;nan
46408;BME280;32110;45.724;21.276;2024-01-25T04:19:43;100956.28;;;3.58;nan
46408;BME280;32110;45.724;21.276;2024-01-25T04:22:09;100971.72;;;3.68;nan
46408;BME280;32110;45.724;21.276;2024-01-25T04:24:34;100980.69;;;3.74;nan
46408;BME280;32110;45.724;21.276;2024-01-25T04:26:59;100973.84;;;3.73;nan
46408;BME280;32110;45.724;21.276;2024-01-25T04:29:25;100967.66;;;3.74;nan
46408;BME280;32110;45.724;21.276;2024-01-25T04:31:50;100979.06;;;3.81;nan
46408;BME280;32110;45.724;21.276;2024-01-25T04:34:16;100995.66;;;3.88;nan
46408;BME280;32110;45.724;21.276;2024-01-25T04:36:42;100963.72;;;3.86;nan
46408;BME280;32110;45.724;21.276;2024-01-25T04:39:07;100958.81;;;3.83;nan
46408;BME280;32110;45.724;21.276;2024-01-25T04:41:33;100968.91;;;3.94;nan
46408;BME280;32110;45.724;21.276;2024-01-25T04:43:58;100979.63;;;3.99;nan
46408;BME280;32110;45.724;21.276;2024-01-25T04:46:23;100979.31;;;4.02;nan
46408;BME280;32110;45.724;21.276;2024-01-25T04:48:49;100966.78;;;3.98;nan
46408;BME280;32110;45.724;21.276;2024-01-25T04:51:18;100967.25;;;4.01;nan
46408;BME280;32110;45.724;21.276;2024-01-25T04:53:47;100974.06;;;4.11;nan
46408;BME280;32110;45.724;21.276;2024-01-25T04:56:12;100968.22;;;4.09;nan
46408;BME280;32110;45.724;21.276;2024-01-25T04:58:38;100977.97;;;4.15;nan
46408;BME280;32110;45.724;21.276;2024-01-25T05:01:03;100981.03;;;4.18;nan
46408;BME280;32110;45.724;21.276;2024-01-25T05:03:29;100980.88;;;4.20;nan
46408;BME280;32110;45.724;21.276;2024-01-25T05:05:56;100967.41;;;4.08;nan
46408;BME280;32110;45.724;21.276;2024-01-25T05:08:21;100984.16;;;4.14;nan
46408;BME280;32110;45.724;21.276;2024-01-25T05:10:46;100980.59;;;4.15;nan
46408;BME280;32110;45.724;21.276;2024-01-25T05:13:12;100970.00;;;4.08;nan
46408;BME280;32110;45.724;21.276;2024-01-25T05:15:38;100972.28;;;4.11;nan
46408;BME280;32110;45.724;21.276;2024-01-25T05:18:03;100976.53;;;4.12;nan
46408;BME280;32110;45.724;21.276;2024-01-25T05:20:29;100985.44;;;4.18;nan
46408;BME280;32110;45.724;21.276;2024-01-25T05:23:01;100985.00;;;4.14;nan
46408;BME280;32110;45.724;21.276;2024-01-25T05:25:28;100976.69;;;4.11;nan
46408;BME280;32110;45.724;21.276;2024-01-25T05:27:54;100989.34;;;4.22;nan
46408;BME280;32110;45.724;21.276;2024-01-25T05:30:29;100996.50;;;4.28;nan
46408;BME280;32110;45.724;21.276;2024-01-25T05:32:55;100995.03;;;4.25;nan
46408;BME280;32110;45.724;21.276;2024-01-25T05:35:20;100991.75;;;4.32;nan
46408;BME280;32110;45.724;21.276;2024-01-25T05:37:46;100986.56;;;4.32;nan
46408;BME280;32110;45.724;21.276;2024-01-25T05:40:11;100974.38;;;4.24;nan
46408;BME280;32110;45.724;21.276;2024-01-25T05:42:38;100988.34;;;4.31;nan
46408;BME280;32110;45.724;21.276;2024-01-25T05:45:03;100989.59;;;4.43;nan
46408;BME280;32110;45.724;21.276;2024-01-25T05:47:29;100990.88;;;4.47;nan
46408;BME280;32110;45.724;21.276;2024-01-25T05:49:55;100982.94;;;4.41;nan
46408;BME280;32110;45.724;21.276;2024-01-25T05:52:22;100979.69;;;4.39;nan
46408;BME280;32110;45.724;21.276;2024-01-25T05:54:48;100978.03;;;4.38;nan
46408;BME280;32110;45.724;21.276;2024-01-25T05:57:13;100985.19;;;4.44;nan
46408;BME280;32110;45.724;21.276;2024-01-25T05:59:39;100991.19;;;4.53;nan
46408;BME280;32110;45.724;21.276;2024-01-25T06:02:05;100999.97;;;4.52;nan
46408;BME280;32110;45.724;21.276;2024-01-25T06:04:30;101003.59;;;4.51;nan
46408;BME280;32110;45.724;21.276;2024-01-25T06:06:56;100988.59;;;4.44;nan
46408;BME280;32110;45.724;21.276;2024-01-25T06:09:22;101016.56;;;4.59;nan
46408;BME280;32110;45.724;21.276;2024-01-25T06:11:48;101005.78;;;4.62;nan
46408;BME280;32110;45.724;21.276;2024-01-25T06:14:13;100998.16;;;4.60;nan
46408;BME280;32110;45.724;21.276;2024-01-25T06:16:39;100977.66;;;4.49;nan
46408;BME280;32110;45.724;21.276;2024-01-25T06:19:04;101002.50;;;4.68;nan
46408;BME280;32110;45.724;21.276;2024-01-25T06:21:29;100999.59;;;4.63;nan
46408;BME280;32110;45.724;21.276;2024-01-25T06:23:55;101003.66;;;4.65;nan
46408;BME280;32110;45.724;21.276;2024-01-25T06:26:20;100994.56;;;4.61;nan
46408;BME280;32110;45.724;21.276;2024-01-25T06:28:46;101016.84;;;4.72;nan
46408;BME280;32110;45.724;21.276;2024-01-25T06:31:11;101008.84;;;4.74;nan
46408;BME280;32110;45.724;21.276;2024-01-25T06:33:39;101005.78;;;4.70;nan
46408;BME280;32110;45.724;21.276;2024-01-25T06:36:05;101016.94;;;4.79;nan
46408;BME280;32110;45.724;21.276;2024-01-25T06:38:31;101014.34;;;4.79;nan
46408;BME280;32110;45.724;21.276;2024-01-25T06:40:56;101008.69;;;4.75;nan
46408;BME280;32110;45.724;21.276;2024-01-25T06:43:22;100995.50;;;4.68;nan
46408;BME280;32110;45.724;21.276;2024-01-25T06:45:47;101001.66;;;4.76;nan
46408;BME280;32110;45.724;21.276;2024-01-25T06:48:12;100996.56;;;4.82;nan
46408;BME280;32110;45.724;21.276;2024-01-25T06:50:38;101008.09;;;4.88;nan
46408;BME280;32110;45.724;21.276;2024-01-25T06:53:04;100991.06;;;4.77;nan
46408;BME280;32110;45.724;21.276;2024-01-25T06:55:29;100996.56;;;4.82;nan
46408;BME280;32110;45.724;21.276;2024-01-25T06:57:54;100994.59;;;4.84;nan
46408;BME280;32110;45.724;21.276;2024-01-25T07:00:20;101003.72;;;4.88;nan
46408;BME280;32110;45.724;21.276;2024-01-25T07:02:46;101012.94;;;4.99;nan
46408;BME280;32110;45.724;21.276;2024-01-25T07:05:12;101023.94;;;5.09;nan
46408;BME280;32110;45.724;21.276;2024-01-25T07:07:38;101018.06;;;5.16;nan
46408;BME280;32110;45.724;21.276;2024-01-25T07:10:05;100991.03;;;5.08;nan
46408;BME280;32110;45.724;21.276;2024-01-25T07:12:30;100988.34;;;5.17;nan
46408;BME280;32110;45.724;21.276;2024-01-25T07:14:56;100985.03;;;5.23;nan
46408;BME280;32110;45.724;21.276;2024-01-25T07:17:21;100996.84;;;5.33;nan
46408;BME280;32110;45.724;21.276;2024-01-25T07:19:47;101013.28;;;5.42;nan
46408;BME280;32110;45.724;21.276;2024-01-25T07:22:12;100979.22;;;5.36;nan
46408;BME280;32110;45.724;21.276;2024-01-25T07:24:40;100981.78;;;5.44;nan
46408;BME280;32110;45.724;21.276;2024-01-25T07:27:05;100990.16;;;5.54;nan
46408;BME280;32110;45.724;21.276;2024-01-25T07:29:31;100986.22;;;5.58;nan
46408;BME280;32110;45.724;21.276;2024-01-25T07:31:56;100976.31;;;5.53;nan
46408;BME280;32110;45.724;21.276;2024-01-25T07:34:21;100996.59;;;5.66;nan
46408;BME280;32110;45.724;21.276;2024-01-25T07:36:47;100985.84;;;5.61;nan
46408;BME280;32110;45.724;21.276;2024-01-25T07:39:12;100989.00;;;5.71;nan
46408;BME280;32110;45.724;21.276;2024-01-25T07:41:38;100997.50;;;5.73;nan
46408;BME280;32110;45.724;21.276;2024-01-25T07:44:03;100997.59;;;5.80;nan
46408;BME280;32110;45.724;21.276;2024-01-25T07:46:29;100980.38;;;5.71;nan
46408;BME280;32110;45.724;21.276;2024-01-25T07:48:55;100990.41;;;5.82;nan
46408;BME280;32110;45.724;21.276;2024-01-25T07:51:20;100990.84;;;5.86;nan
46408;BME280;32110;45.724;21.276;2024-01-25T07:53:46;100991.94;;;5.91;nan
46408;BME280;32110;45.724;21.276;2024-01-25T07:56:11;101002.88;;;5.95;nan
46408;BME280;32110;45.724;21.276;2024-01-25T07:58:37;100967.13;;;5.72;nan
46408;BME280;32110;45.724;21.276;2024-01-25T08:01:05;100992.03;;;5.98;nan
46408;BME280;32110;45.724;21.276;2024-01-25T08:03:32;100989.69;;;6.03;nan
46408;BME280;32110;45.724;21.276;2024-01-25T08:05:58;100968.34;;;6.00;nan
46408;BME280;32110;45.724;21.276;2024-01-25T08:08:24;100973.41;;;6.01;nan
46408;BME280;32110;45.724;21.276;2024-01-25T08:10:49;100986.00;;;6.12;nan
46408;BME280;32110;45.724;21.276;2024-01-25T08:13:15;100991.16;;;6.21;nan
46408;BME280;32110;45.724;21.276;2024-01-25T08:15:40;101001.25;;;6.24;nan
46408;BME280;32110;45.724;21.276;2024-01-25T08:18:06;100990.88;;;6.30;nan
46408;BME280;32110;45.724;21.276;2024-01-25T08:20:31;100986.00;;;6.27;nan
46408;BME280;32110;45.724;21.276;2024-01-25T08:22:57;100979.16;;;6.26;nan
46408;BME280;32110;45.724;21.276;2024-01-25T08:25:22;100990.97;;;6.37;nan
46408;BME280;32110;45.724;21.276;2024-01-25T08:27:48;100997.34;;;6.49;nan
46408;BME280;32110;45.724;21.276;2024-01-25T08:30:14;100998.88;;;6.58;nan
46408;BME280;32110;45.724;21.276;2024-01-25T08:44:47;100994.91;;;6.84;nan
46408;BME280;32110;45.724;21.276;2024-01-25T08:52:09;101052.78;;;7.32;nan
46408;BME280;32110;45.724;21.276;2024-01-25T08:54:34;101001.53;;;7.01;nan
46408;BME280;32110;45.724;21.276;2024-01-25T08:57:02;101017.81;;;7.18;nan
46408;BME280;32110;45.724;21.276;2024-01-25T08:59:28;101012.75;;;7.17;nan
46408;BME280;32110;45.724;21.276;2024-01-25T09:01:56;101007.94;;;7.20;nan
46408;BME280;32110;45.724;21.276;2024-01-25T09:04:21;101011.09;;;7.31;nan
46408;BME280;32110;45.724;21.276;2024-01-25T09:06:47;101021.34;;;7.32;nan
46408;BME280;32110;45.724;21.276;2024-01-25T09:09:12;101002.84;;;7.34;nan
46408;BME280;32110;45.724;21.276;2024-01-25T09:11:38;101021.03;;;7.42;nan
46408;BME280;32110;45.724;21.276;2024-01-25T09:14:03;101014.81;;;7.43;nan
46408;BME280;32110;45.724;21.276;2024-01-25T09:16:29;101002.53;;;7.43;nan
46408;BME280;32110;45.724;21.276;2024-01-25T09:18:54;101009.25;;;7.53;nan
46408;BME280;32110;45.724;21.276;2024-01-25T09:21:19;101009.06;;;7.54;nan
46408;BME280;32110;45.724;21.276;2024-01-25T09:23:45;101002.44;;;7.58;nan
46408;BME280;32110;45.724;21.276;2024-01-25T09:26:10;100999.63;;;7.60;nan
46408;BME280;32110;45.724;21.276;2024-01-25T09:28:36;100985.28;;;7.56;nan
46408;BME280;32110;45.724;21.276;2024-01-25T09:31:01;100992.63;;;7.67;nan
46408;BME280;32110;45.724;21.276;2024-01-25T09:33:27;101011.66;;;7.76;nan
46408;BME280;32110;45.724;21.276;2024-01-25T09:35:55;101015.44;;;7.73;nan
46408;BME280;32110;45.724;21.276;2024-01-25T09:38:21;101000.34;;;7.75;nan
46408;BME280;32110;45.724;21.276;2024-01-25T09:40:46;101006.44;;;7.82;nan
46408;BME280;32110;45.724;21.276;2024-01-25T09:43:13;101013.53;;;7.88;nan
46408;BME280;32110;45.724;21.276;2024-01-25T09:45:39;100989.13;;;7.88;nan
46408;BME280;32110;45.724;21.276;2024-01-25T09:48:07;100986.00;;;8.06;nan
46408;BME280;32110;45.724;21.276;2024-01-25T09:50:32;100974.94;;;8.10;nan
46408;BME280;32110;45.724;21.276;2024-01-25T09:52:59;100997.22;;;8.28;nan
46408;BME280;32110;45.724;21.276;2024-01-25T09:55:26;100985.28;;;8.25;nan
46408;BME280;32110;45.724;21.276;2024-01-25T09:57:55;100955.59;;;8.18;nan
46408;BME280;32110;45.724;21.276;2024-01-25T10:00:22;100975.25;;;8.36;nan
46408;BME280;32110;45.724;21.276;2024-01-25T10:22:18;100956.47;;;8.93;nan
46408;BME280;32110;45.724;21.276;2024-01-25T10:27:10;100951.41;;;9.19;nan
46408;BME280;32110;45.724;21.276;2024-01-25T10:29:35;100949.19;;;9.15;nan
46408;BME280;32110;45.724;21.276;2024-01-25T10:32:02;100928.78;;;9.11;nan
46408;BME280;32110;45.724;21.276;2024-01-25T10:34:28;100938.88;;;9.21;nan
46408;BME280;32110;45.724;21.276;2024-01-25T10:58:49;100921.25;;;9.68;nan
46408;BME280;32110;45.724;21.276;2024-01-25T11:01:16;100928.72;;;9.77;nan
46408;BME280;32110;45.724;21.276;2024-01-25T11:03:45;100919.63;;;9.73;nan
46408;BME280;32110;45.724;21.276;2024-01-25T11:06:14;100914.34;;;9.67;nan
46408;BME280;32110;45.724;21.276;2024-01-25T11:08:40;100914.78;;;9.70;nan
46408;BME280;32110;45.724;21.276;2024-01-25T11:11:06;100927.25;;;9.82;nan
46408;BME280;32110;45.724;21.276;2024-01-25T11:13:33;100909.88;;;9.80;nan
46408;BME280;32110;45.724;21.276;2024-01-25T11:15:58;100903.41;;;9.76;nan
46408;BME280;32110;45.724;21.276;2024-01-25T11:18:27;100910.88;;;9.86;nan
46408;BME280;32110;45.724;21.276;2024-01-25T11:20:53;100906.03;;;9.83;nan
46408;BME280;32110;45.724;21.276;2024-01-25T11:23:18;100918.56;;;9.88;nan
46408;BME280;32110;45.724;21.276;2024-01-25T11:25:45;100896.28;;;9.90;nan
46408;BME280;32110;45.724;21.276;2024-01-25T11:28:14;100917.53;;;9.89;nan
46408;BME280;32110;45.724;21.276;2024-01-25T11:30:41;100908.84;;;9.88;nan
46408;BME280;32110;45.724;21.276;2024-01-25T11:33:07;100914.50;;;9.92;nan
46408;BME280;32110;45.724;21.276;2024-01-25T11:35:33;100918.31;;;9.96;nan
46408;BME280;32110;45.724;21.276;2024-01-25T11:37:59;100904.00;;;9.85;nan
46408;BME280;32110;45.724;21.276;2024-01-25T11:40:25;100913.84;;;10.03;nan
46408;BME280;32110;45.724;21.276;2024-01-25T11:42:51;100913.03;;;10.09;nan
46408;BME280;32110;45.724;21.276;2024-01-25T11:45:17;100913.22;;;10.08;nan
46408;BME280;32110;45.724;21.276;2024-01-25T11:47:43;100892.16;;;10.14;nan
46408;BME280;32110;45.724;21.276;2024-01-25T11:50:11;100889.50;;;10.14;nan
46408;BME280;32110;45.724;21.276;2024-01-25T11:52:37;100904.25;;;10.22;nan
46408;BME280;32110;45.724;21.276;2024-01-25T11:55:03;100898.00;;;10.30;nan
46408;BME280;32110;45.724;21.276;2024-01-25T11:57:35;100887.81;;;10.27;nan
46408;BME280;32110;45.724;21.276;2024-01-25T12:00:02;100885.44;;;10.25;nan
46408;BME280;32110;45.724;21.276;2024-01-25T12:02:29;100901.75;;;10.40;nan
46408;BME280;32110;45.724;21.276;2024-01-25T12:04:56;100902.22;;;10.24;nan
46408;BME280;32110;45.724;21.276;2024-01-25T12:07:22;100908.25;;;10.38;nan
46408;BME280;32110;45.724;21.276;2024-01-25T12:10:06;100905.25;;;10.34;nan
46408;BME280;32110;45.724;21.276;2024-01-25T12:12:34;100915.13;;;10.39;nan
46408;BME280;32110;45.724;21.276;2024-01-25T12:15:01;100915.50;;;10.49;nan
46408;BME280;32110;45.724;21.276;2024-01-25T12:17:29;100894.72;;;10.34;nan
46408;BME280;32110;45.724;21.276;2024-01-25T12:19:59;100911.69;;;10.38;nan
46408;BME280;32110;45.724;21.276;2024-01-25T12:22:28;100905.00;;;10.42;nan
46408;BME280;32110;45.724;21.276;2024-01-25T12:24:55;100913.06;;;10.48;nan
46408;BME280;32110;45.724;21.276;2024-01-25T12:27:21;100910.25;;;10.42;nan
46408;BME280;32110;45.724;21.276;2024-01-25T12:29:50;100913.03;;;10.54;nan
46408;BME280;32110;45.724;21.276;2024-01-25T12:32:17;100905.63;;;10.70;nan
46408;BME280;32110;45.724;21.276;2024-01-25T12:54:17;100905.38;;;10.01;nan
46408;BME280;32110;45.724;21.276;2024-01-25T12:56:42;100909.00;;;10.00;nan
46408;BME280;32110;45.724;21.276;2024-01-25T12:59:08;100904.34;;;10.02;nan
46408;BME280;32110;45.724;21.276;2024-01-25T13:01:34;100896.88;;;9.99;nan
46408;BME280;32110;45.724;21.276;2024-01-25T13:03:59;100898.09;;;9.96;nan
46408;BME280;32110;45.724;21.276;2024-01-25T13:06:24;100900.88;;;10.08;nan
46408;BME280;32110;45.724;21.276;2024-01-25T13:08:50;100897.69;;;9.99;nan
46408;BME280;32110;45.724;21.276;2024-01-25T13:11:15;100881.91;;;9.93;nan
46408;BME280;32110;45.724;21.276;2024-01-25T13:13:41;100896.06;;;9.98;nan
46408;BME280;32110;45.724;21.276;2024-01-25T13:16:06;100885.72;;;10.04;nan
46408;BME280;32110;45.724;21.276;2024-01-25T13:18:32;100876.88;;;9.91;nan
46408;BME280;32110;45.724;21.276;2024-01-25T13:20:57;100876.63;;;9.99;nan
46408;BME280;32110;45.724;21.276;2024-01-25T13:23:22;100896.03;;;10.05;nan
46408;BME280;32110;45.724;21.276;2024-01-25T13:25:48;100878.84;;;10.02;nan
46408;BME280;32110;45.724;21.276;2024-01-25T13:28:13;100884.50;;;10.06;nan
46408;BME280;32110;45.724;21.276;2024-01-25T13:30:39;100886.72;;;10.02;nan
46408;BME280;32110;45.724;21.276;2024-01-25T13:33:04;100888.56;;;9.95;nan
46408;BME280;32110;45.724;21.276;2024-01-25T13:35:29;100878.28;;;9.94;nan
46408;BME280;32110;45.724;21.276;2024-01-25T13:37:55;100889.81;;;9.93;nan
46408;BME280;32110;45.724;21.276;2024-01-25T13:40:26;100881.09;;;9.99;nan
46408;BME280;32110;45.724;21.276;2024-01-25T13:42:51;100875.59;;;10.00;nan
46408;BME280;32110;45.724;21.276;2024-01-25T13:45:16;100877.88;;;9.90;nan
46408;BME280;32110;45.724;21.276;2024-01-25T13:47:42;100883.56;;;9.87;nan
46408;BME280;32110;45.724;21.276;2024-01-25T13:50:07;100893.28;;;9.87;nan
46408;BME280;32110;45.724;21.276;2024-01-25T13:52:33;100882.19;;;9.71;nan
46408;BME280;32110;45.724;21.276;2024-01-25T13:54:58;100891.72;;;9.72;nan
46408;BME280;32110;45.724;21.276;2024-01-25T13:57:24;100886.88;;;9.63;nan
46408;BME280;32110;45.724;21.276;2024-01-25T13:59:49;100885.06;;;9.50;nan
46408;BME280;32110;45.724;21.276;2024-01-25T14:02:16;100894.97;;;9.48;nan
46408;BME280;32110;45.724;21.276;2024-01-25T14:04:41;100871.75;;;9.38;nan
46408;BME280;32110;45.724;21.276;2024-01-25T14:07:07;100897.44;;;9.36;nan
46408;BME280;32110;45.724;21.276;2024-01-25T14:09:32;100893.38;;;9.33;nan
46408;BME280;32110;45.724;21.276;2024-01-25T14:11:58;100902.09;;;9.34;nan
46408;BME280;32110;45.724;21.276;2024-01-25T14:14:23;100896.44;;;9.24;nan
46408;BME280;32110;45.724;21.276;2024-01-25T14:16:49;100898.66;;;9.13;nan
46408;BME280;32110;45.724;21.276;2024-01-25T14:19:14;100910.19;;;9.12;nan
46408;BME280;32110;45.724;21.276;2024-01-25T14:21:40;100906.75;;;9.19;nan
46408;BME280;32110;45.724;21.276;2024-01-25T14:24:05;100871.41;;;9.01;nan